메인 페이지
METAR-TAF:

METAR-TAF

공항 :

Kimble County Airport

Junction, 텍사스, 미국

위도: 30-30-39N, 경도: 099-45-59W, 고도: 527m

현재 날씨관측

예보는 33분 전, 12:51시(UTC)에 발표되었습니다.
남남동3kt
온도 24°C
습도 89%
기압 1016 hPa
시정: 12.9km
고도 4500ft 상공 구름 보통
고도 7000ft 상공 구름 많음

METAR: KJCT 131251Z AUTO 15003KT 8SM SCT045 BKN070 24/22 A3000 RMK AO2 SLP121 T02390222

시각: 08:24 (13:24 UTC)

예보

예보는 1 시간 55분 전, 11:29시(UTC)에 발표되었습니다.
예보 대상 시간: 13일 12시부터 14일 12시까지 (UTC)
남동7kt
시정: 10km
맑음
일시적
13일 12시부터 13일 14시까지 (UTC)
고도 1500ft 상공 구름 보통
14일 0300시부터 (UTC)
남동3kt
시정: 10km
맑음

TAF: KJCT 131129Z 1312/1412 13007KT P6SM SKC TEMPO 1312/1314 SCT015 FM140300 13003KT P6SM SKC

4,000개 이상의 공항 관측 자료 및 예보 (METAR 및 TAF 보고).

지도상에서 검색 가능한 기상관측소가 노란 점과 빨간 점으로 표시되어 있습니다.

기상관측소 명을 보려면 표시 위로 마우스를 이동하세요.

날씨 관측과 예보를 보려면 클릭하세요.

지도 변경 : 확대하려면 엑스 표시가 있는 녹색 버튼, 축소하려면 빼기 표시가 있는 녹색 버튼, 다음 페이지의 지도를 보려면 녹색 화살표를 클릭하세요.


METAR-TAF: